HEAX/ALY METAR and TAF weather

Enter ICAO airport designator
Station Type Date Time Source
HEAX METAR 2020/02/19 14:00 UTC NOAA

HEAX 191400Z 32013KT 9999 SCT020 SCT022 18/10 Q1018 NOSIG


Station Type Date Time Source
HEAX Decoded METAR 2020/02/19 14:00 UTC NOAA

Alexandria / Nouzha, Egypt (HEAX) 31-12N 029-57E 7M
Feb 19, 2020 - 09:00 AM EST / 2020.02.19 1400 UTC
Wind: from the NW (320 degrees) at 15 MPH (13 KT):0
Visibility: greater than 7 mile(s):0
Sky conditions: partly cloudy
Temperature: 64 F (18 C)
Dew Point: 50 F (10 C)
Relative Humidity: 59%
Pressure (altimeter): 30.06 in. Hg (1018 hPa)
ob: HEAX 191400Z 32013KT 9999 SCT020 SCT022 18/10 Q1018 NOSIG
cycle: 14

Station Type Date Time Source
HEAX TAF 2020/02/19 12:40 UTC NOAA

TAF HEAX 191100Z 1912/2018 33012KT 9999 SCT020 SCT022
TEMPO 1912/1918 6000 SHRA BKN020
BECMG 2006/2008 24010KT

Example: see airport list